This is the latest recevied weather packets stored in our database for station/object PE1CVJ-7. If no packets are shown the sender has not sent any weather packets the latest 10 day(s).
| Time | Temp. | Humidity | Pressure | Rain* | Wind** | Luminosity | Snow |
|---|---|---|---|---|---|---|---|
| 1788084786 | 72° F | 65% | 757.6 mmHg | - | - | - | - |
| 1788084186 | 72° F | 65% | 758.2 mmHg | - | - | - | - |
| 1787947626 | 64° F | 61% | 756.4 mmHg | - | - | - | - |
| 1787839126 | 85° F | 43% | 757.9 mmHg | - | - | - | - |
| 1787838526 | 85° F | 42% | 758.8 mmHg | - | - | - | - |
| 1787837926 | 86° F | 40% | 758.3 mmHg | - | - | - | - |
| 1787837326 | 87° F | 39% | 758.8 mmHg | - | - | - | - |
| 1787836724 | 88° F | 39% | 758.8 mmHg | - | - | - | - |
| 1787836124 | 86° F | 39% | 758.3 mmHg | - | - | - | - |
| 1787835523 | 85° F | 39% | 758.3 mmHg | - | - | - | - |
| 1787834923 | 83° F | 41% | 758.2 mmHg | - | - | - | - |
| 1787750555 | 99° F | 26% | 762.2 mmHg | - | - | - | - |
| 1787669138 | 81° F | 39% | 760.9 mmHg | - | - | - | - |
| 1787668538 | 81° F | 39% | 760.7 mmHg | - | - | - | - |
| 1787667937 | 81° F | 38% | 761.2 mmHg | - | - | - | - |
| 1787667337 | 81° F | 38% | 761.6 mmHg | - | - | - | - |
| 1787666737 | 81° F | 37% | 761.7 mmHg | - | - | - | - |
| 1787666136 | 82° F | 37% | 761.5 mmHg | - | - | - | - |
| 1787665536 | 83° F | 36% | 761.2 mmHg | - | - | - | - |
| 1787653570 | 83° F | 41% | 762.3 mmHg | - | - | - | - |
| 1787652970 | 81° F | 43% | 762.5 mmHg | - | - | - | - |
| 1787652369 | 79° F | 43% | 762.2 mmHg | - | - | - | - |
| 1787651769 | 79° F | 44% | 762.1 mmHg | - | - | - | - |
| 1787651169 | 78° F | 44% | 761.7 mmHg | - | - | - | - |
| 1787650568 | 78° F | 44% | 762.8 mmHg | - | - | - | - |
* Rain since midnight (hover to see other rain measurements)
** Current wind speed in m/s (hover to see current wind gust speed)